Time;durP1;ratioP1;P1;durP2;ratioP2;P2;SDS_P1;SDS_P2;PMS_P1;PMS_P2;Temp;Humidity;BMP_temperature;BMP_pressure;BME280_temperature;BME280_humidity;BME280_pressure;Samples;Min_cycle;Max_cycle;Signal;HPM_P1;HPM_P2
2022/03/30 00:01:58;;;;;;;51.90;24.57;;;;;;;9.29;47.79;98186.95;1752530;81;21399;-82
2022/03/30 00:04:25;;;;;;;47.75;23.50;;;;;;;9.30;45.43;98193.39;1759238;80;21046;-82
2022/03/30 00:06:52;;;;;;;53.65;23.85;;;;;;;9.27;46.26;98193.94;1753386;81;21451;-80
2022/03/30 00:09:19;;;;;;;49.33;22.48;;;;;;;9.22;44.48;98192.81;1759212;81;20978;-84
2022/03/30 00:11:45;;;;;;;49.70;24.30;;;;;;;9.18;46.72;98189.93;1748896;81;21053;-80
2022/03/30 00:14:12;;;;;;;50.33;23.18;;;;;;;9.18;44.92;98194.28;1759281;80;20966;-82
2022/03/30 00:16:40;;;;;;;49.15;25.52;;;;;;;9.14;45.93;98197.42;1750898;81;21481;-84
2022/03/30 00:19:07;;;;;;;53.33;24.18;;;;;;;9.12;46.17;98190.98;1763427;79;21022;-82
2022/03/30 00:21:33;;;;;;;54.58;24.52;;;;;;;9.10;46.56;98189.34;1750680;80;20950;-84
2022/03/30 00:24:00;;;;;;;57.73;25.45;;;;;;;9.04;46.39;98191.69;1753489;80;20974;-82
2022/03/30 00:26:27;;;;;;;54.08;25.17;;;;;;;9.00;47.27;98190.55;1759007;80;20943;-81
2022/03/30 00:28:54;;;;;;;58.05;25.20;;;;;;;8.98;47.86;98192.35;1755736;80;21005;-82
2022/03/30 00:31:21;;;;;;;51.68;25.12;;;;;;;8.95;47.36;98190.26;1759059;81;20982;-84
2022/03/30 00:33:50;;;;;;;50.92;24.30;;;;;;;8.93;47.28;98189.89;1760335;80;20982;-81
2022/03/30 00:36:17;;;;;;;50.35;24.35;;;;;;;8.92;45.39;98189.51;1758151;80;21009;-80
2022/03/30 00:38:44;;;;;;;51.80;22.87;;;;;;;8.90;46.36;98192.14;1749748;80;21436;-83
2022/03/30 00:41:10;;;;;;;51.40;24.12;;;;;;;8.90;46.27;98189.55;1759180;81;21037;-84
2022/03/30 00:43:37;;;;;;;46.73;23.10;;;;;;;8.89;47.13;98185.28;1752840;81;21022;-81
2022/03/30 00:46:04;;;;;;;53.48;24.00;;;;;;;8.87;46.66;98185.78;1752535;80;20942;-79
2022/03/30 00:48:31;;;;;;;51.15;23.87;;;;;;;8.85;48.81;98183.66;1766264;80;21466;-80
2022/03/30 00:50:58;;;;;;;48.05;24.95;;;;;;;8.85;46.28;98187.55;1759356;80;20974;-81
2022/03/30 00:53:24;;;;;;;52.45;23.47;;;;;;;8.80;46.78;98183.44;1757418;80;20931;-81
2022/03/30 00:55:54;;;;;;;48.25;23.98;;;;;;;8.78;47.77;98184.77;1759474;80;21018;-80
2022/03/30 00:58:22;;;;;;;52.25;24.47;;;;;;;8.74;47.45;98181.42;1756943;80;20950;-81
2022/03/30 01:00:49;;;;;;;50.45;24.47;;;;;;;8.68;48.61;98170.42;1750867;80;21002;-82
2022/03/30 01:03:16;;;;;;;46.08;24.57;;;;;;;8.59;49.59;98178.02;1758910;80;21013;-83
2022/03/30 01:05:43;;;;;;;52.27;25.45;;;;;;;8.62;47.44;98168.88;1756627;81;21019;-82
2022/03/30 01:08:10;;;;;;;53.17;25.57;;;;;;;8.52;48.24;98179.97;1759862;79;20995;-80
2022/03/30 01:10:36;;;;;;;51.10;24.77;;;;;;;8.48;48.76;98176.23;1752358;80;21485;-83
2022/03/30 01:13:05;;;;;;;54.23;24.82;;;;;;;8.45;49.41;98171.98;1759102;81;21045;-81
2022/03/30 01:15:33;;;;;;;50.80;25.57;;;;;;;8.43;47.64;98163.41;1748657;81;21030;-82
2022/03/30 01:18:00;;;;;;;52.38;27.13;;;;;;;8.34;49.47;98168.41;1756022;80;20990;-80
2022/03/30 01:20:27;;;;;;;52.53;25.40;;;;;;;8.31;48.18;98159.42;1752894;80;21442;-87
2022/03/30 01:22:54;;;;;;;52.17;25.77;;;;;;;8.30;48.05;98164.67;1738380;80;20966;-86
2022/03/30 01:25:20;;;;;;;55.63;25.68;;;;;;;8.26;48.38;98156.15;1762464;80;21023;-82
2022/03/30 01:27:47;;;;;;;56.42;26.68;;;;;;;8.23;48.38;98156.68;1764407;80;21003;-85
2022/03/30 01:33:05;;;;;;;59.98;26.27;;;;;;;8.12;50.60;98152.68;1759502;81;20910;-86
2022/03/30 01:35:33;;;;;;;54.75;25.17;;;;;;;8.12;48.50;98141.48;1749970;80;20960;-82
2022/03/30 01:38:00;;;;;;;64.17;26.62;;;;;;;8.09;50.92;98146.28;1759320;80;20967;-85
2022/03/30 01:40:27;;;;;;;53.87;26.37;;;;;;;8.10;48.86;98148.45;1753394;80;20971;-81
2022/03/30 01:42:54;;;;;;;56.85;26.90;;;;;;;8.07;49.69;98148.53;1759214;81;20939;-84
2022/03/30 01:45:21;;;;;;;54.10;25.40;;;;;;;8.06;48.89;98147.69;1754694;80;20951;-82
2022/03/30 01:47:50;;;;;;;57.90;26.82;;;;;;;8.06;48.97;98149.44;1755794;80;20966;-81
2022/03/30 01:50:17;;;;;;;58.23;25.12;;;;;;;8.05;49.93;98143.39;1758210;81;21022;-82
2022/03/30 01:52:45;;;;;;;58.92;26.37;;;;;;;8.06;49.39;98150.28;1759439;81;20914;-80
2022/03/30 01:55:12;;;;;;;60.10;25.55;;;;;;;8.03;50.39;98153.41;1759103;80;21041;-81
2022/03/30 01:57:39;;;;;;;57.62;25.57;;;;;;;8.02;49.13;98151.27;1755338;80;20948;-82
2022/03/30 02:00:07;;;;;;;55.52;25.92;;;;;;;8.00;49.43;98150.89;1762790;81;21518;-81
2022/03/30 02:02:36;;;;;;;53.48;26.48;;;;;;;8.02;49.44;98148.67;1749726;80;21046;-80
2022/03/30 02:05:03;;;;;;;61.20;26.37;;;;;;;7.94;50.50;98147.61;1759638;80;20955;-82
2022/03/30 02:07:30;;;;;;;59.40;27.00;;;;;;;7.90;51.64;98146.45;1753188;80;20976;-84
2022/03/30 02:09:56;;;;;;;53.40;25.68;;;;;;;7.89;52.04;98149.92;1760240;80;20952;-81
2022/03/30 02:12:23;;;;;;;52.55;25.20;;;;;;;7.87;50.48;98147.83;1755606;80;20974;-87
2022/03/30 02:14:51;;;;;;;51.18;24.47;;;;;;;7.84;50.88;98153.08;1758388;80;20980;-88
2022/03/30 02:17:19;;;;;;;55.67;25.82;;;;;;;7.82;50.16;98151.85;1751020;81;20978;-84
2022/03/30 02:19:46;;;;;;;54.95;26.00;;;;;;;7.79;50.03;98151.93;1758763;80;20958;-80
2022/03/30 02:22:13;;;;;;;57.17;27.15;;;;;;;7.73;50.17;98152.95;1750116;81;20990;-83
2022/03/30 02:24:40;;;;;;;45.75;23.80;;;;;;;7.66;52.11;98155.75;1751215;80;20975;-82
2022/03/30 02:27:07;;;;;;;50.78;25.45;;;;;;;7.63;52.34;98151.52;1757977;80;21068;-81
2022/03/30 02:29:35;;;;;;;55.08;26.68;;;;;;;7.55;51.16;98147.02;1749590;81;20986;-82
2022/03/30 02:32:02;;;;;;;53.08;24.00;;;;;;;7.49;52.90;98153.66;1759103;80;21010;-81
2022/03/30 02:34:30;;;;;;;48.23;24.45;;;;;;;7.49;51.08;98154.95;1752217;80;20994;-83
2022/03/30 02:36:56;;;;;;;57.95;25.52;;;;;;;7.43;52.94;98158.99;1759248;80;21495;-86
2022/03/30 02:39:23;;;;;;;58.78;26.00;;;;;;;7.38;52.31;98155.22;1758006;81;20960;-81
2022/03/30 02:41:50;;;;;;;48.52;24.60;;;;;;;7.34;53.43;98163.53;1736331;80;21048;-81
2022/03/30 02:44:17;;;;;;;58.23;24.40;;;;;;;7.26;52.85;98158.14;1732683;82;20975;-86
2022/03/30 02:46:43;;;;;;;51.75;24.35;;;;;;;7.17;54.32;98157.95;1752983;81;20990;-83
2022/03/30 02:49:10;;;;;;;55.00;23.85;;;;;;;7.15;54.49;98164.90;1751213;81;21006;-85
2022/03/30 02:51:38;;;;;;;54.03;24.18;;;;;;;7.11;54.36;98164.58;1742456;82;20955;-85
2022/03/30 02:54:05;;;;;;;45.60;23.20;;;;;;;7.12;54.99;98165.84;1742478;81;21028;-81
2022/03/30 02:56:32;;;;;;;48.85;23.77;;;;;;;7.13;53.16;98160.22;1743500;81;20950;-81
2022/03/30 02:58:58;;;;;;;49.77;22.62;;;;;;;7.12;53.58;98164.55;1746573;81;21009;-83
2022/03/30 03:01:25;;;;;;;52.17;23.75;;;;;;;7.11;54.56;98167.16;1747971;82;21466;-82
2022/03/30 03:03:52;;;;;;;45.75;22.95;;;;;;;7.10;53.69;98166.33;1747808;81;20979;-84
2022/03/30 03:06:18;;;;;;;49.98;22.98;;;;;;;7.10;54.17;98156.41;1740076;82;21029;-81
2022/03/30 03:08:45;;;;;;;51.83;24.60;;;;;;;7.08;53.77;98164.22;1733542;82;20978;-84
2022/03/30 03:11:11;;;;;;;56.02;25.02;;;;;;;7.10;55.33;98170.63;1745505;81;21515;-81
2022/03/30 03:13:38;;;;;;;63.73;26.25;;;;;;;7.04;55.33;98166.91;1749011;82;20970;-82
2022/03/30 03:16:05;;;;;;;51.92;24.07;;;;;;;7.07;53.41;98165.09;1742210;82;20954;-84
2022/03/30 03:18:32;;;;;;;57.23;25.08;;;;;;;7.11;54.00;98168.45;1732456;82;20931;-83
2022/03/30 03:20:58;;;;;;;45.83;23.92;;;;;;;7.08;54.85;98171.11;1737344;82;20982;-83
2022/03/30 03:23:25;;;;;;;43.83;22.58;;;;;;;7.06;55.41;98174.17;1748977;81;21017;-83
2022/03/30 03:25:53;;;;;;;51.25;23.55;;;;;;;7.09;54.89;98171.07;1743925;82;21014;-79
2022/03/30 03:28:20;;;;;;;53.92;23.65;;;;;;;7.12;54.45;98181.77;1748960;81;20962;-82
2022/03/30 03:30:47;;;;;;;63.48;23.32;;;;;;;7.13;54.50;98177.86;1748711;81;20987;-83
2022/03/30 03:33:15;;;;;;;58.17;26.12;;;;;;;7.13;54.48;98180.44;1748660;81;21017;-83
2022/03/30 03:35:41;;;;;;;54.03;24.12;;;;;;;7.14;54.70;98182.16;1725696;81;20991;-81
2022/03/30 03:38:08;;;;;;;52.85;24.35;;;;;;;7.16;53.80;98180.80;1734332;82;20979;-83
2022/03/30 03:40:36;;;;;;;56.65;26.17;;;;;;;7.19;53.79;98174.72;1746771;81;20947;-81
2022/03/30 03:43:04;;;;;;;51.77;25.32;;;;;;;7.16;54.87;98168.75;1743684;81;21452;-81
2022/03/30 03:45:32;;;;;;;60.60;24.92;;;;;;;7.19;54.79;98179.44;1755693;81;20982;-82
2022/03/30 03:47:58;;;;;;;53.98;24.32;;;;;;;7.22;54.18;98174.20;1752794;81;21526;-81
2022/03/30 03:50:26;;;;;;;55.38;25.82;;;;;;;7.22;54.50;98169.03;1764921;81;20910;-80
2022/03/30 03:52:55;;;;;;;53.73;23.35;;;;;;;7.27;53.75;98174.91;1762840;81;20946;-83
2022/03/30 03:55:22;;;;;;;48.98;23.12;;;;;;;7.31;53.17;98179.11;1764588;81;20957;-80
2022/03/30 03:57:50;;;;;;;49.50;24.18;;;;;;;7.34;53.47;98172.58;1761212;81;21510;-83
2022/03/30 04:00:17;;;;;;;54.35;24.98;;;;;;;7.36;53.50;98181.14;1756856;81;20942;-83
2022/03/30 04:02:44;;;;;;;48.33;23.52;;;;;;;7.37;54.04;98184.57;1758306;81;20991;-83
2022/03/30 04:05:13;;;;;;;46.10;22.67;;;;;;;7.39;54.19;98187.96;1764658;80;20961;-83
2022/03/30 04:07:40;;;;;;;57.10;24.60;;;;;;;7.42;53.50;98190.90;1758822;81;20952;-86
2022/03/30 04:10:09;;;;;;;52.48;23.85;;;;;;;7.39;53.53;98180.20;1762094;81;20994;-85
2022/03/30 04:12:36;;;;;;;60.33;24.12;;;;;;;7.42;53.57;98184.44;1760958;81;20970;-81
2022/03/30 04:15:03;;;;;;;44.30;23.62;;;;;;;7.43;53.94;98184.86;1764318;81;21537;-82
2022/03/30 04:17:32;;;;;;;48.08;23.75;;;;;;;7.43;53.63;98185.70;1764440;81;21010;-83
2022/03/30 04:19:59;;;;;;;46.08;21.07;;;;;;;7.44;53.63;98187.83;1763427;81;20942;-82
2022/03/30 04:22:26;;;;;;;57.25;22.55;;;;;;;7.43;53.85;98189.58;1764627;81;20974;-82
2022/03/30 04:24:52;;;;;;;48.78;23.22;;;;;;;7.41;53.62;98186.63;1756222;81;21004;-82
2022/03/30 04:27:19;;;;;;;51.53;23.22;;;;;;;7.41;53.32;98184.05;1764585;81;20959;-82
2022/03/30 04:29:46;;;;;;;51.90;22.80;;;;;;;7.41;52.64;98183.59;1761282;81;20989;-82
2022/03/30 04:32:12;;;;;;;51.08;24.12;;;;;;;7.40;53.57;98187.09;1763499;81;20982;-82
2022/03/30 04:34:39;;;;;;;50.23;22.85;;;;;;;7.41;54.27;98189.22;1762650;81;20954;-83
2022/03/30 04:37:06;;;;;;;49.75;23.12;;;;;;;7.41;54.38;98182.75;1764780;81;21466;-84
2022/03/30 04:39:33;;;;;;;52.50;22.35;;;;;;;7.47;53.24;98185.17;1763836;81;21005;-83
2022/03/30 04:42:00;;;;;;;52.53;24.32;;;;;;;7.47;53.19;98186.47;1763099;81;21096;-81
2022/03/30 04:44:26;;;;;;;55.38;24.60;;;;;;;7.49;53.37;98190.70;1753928;81;20977;-83
2022/03/30 04:46:54;;;;;;;48.17;22.87;;;;;;;7.51;53.20;98190.21;1746860;80;20965;-86
2022/03/30 04:49:21;;;;;;;46.63;22.42;;;;;;;7.52;53.44;98198.81;1758589;81;21486;-82
2022/03/30 04:51:48;;;;;;;55.85;23.57;;;;;;;7.57;52.85;98195.67;1744450;81;20954;-83
2022/03/30 04:54:16;;;;;;;49.35;23.05;;;;;;;7.55;52.89;98194.41;1759586;80;21025;-83
2022/03/30 04:56:43;;;;;;;51.80;22.55;;;;;;;7.57;53.22;98190.04;1758168;81;20983;-88
2022/03/30 04:59:10;;;;;;;58.87;24.47;;;;;;;7.60;53.23;98193.43;1781631;80;20948;-81
2022/03/30 05:01:37;;;;;;;48.78;22.27;;;;;;;7.62;53.02;98194.23;1758529;80;21023;-83
2022/03/30 05:04:07;;;;;;;54.73;23.65;;;;;;;7.66;52.58;98194.55;1780802;79;21016;-89
2022/03/30 05:06:33;;;;;;;61.83;24.82;;;;;;;7.67;52.90;98190.64;1756457;80;20962;-89
2022/03/30 05:09:00;;;;;;;53.10;24.07;;;;;;;7.70;53.32;98188.40;1759576;80;20954;-87
2022/03/30 05:11:27;;;;;;;52.78;24.90;;;;;;;7.77;52.46;98189.48;1759557;80;20907;-86
2022/03/30 05:13:53;;;;;;;54.95;23.50;;;;;;;7.81;53.07;98193.30;1732385;81;20974;-86
2022/03/30 05:16:20;;;;;;;58.85;24.63;;;;;;;7.82;53.59;98191.09;1756837;80;20995;-86
2022/03/30 05:18:47;;;;;;;53.58;23.07;;;;;;;7.88;52.36;98193.53;1759912;80;20979;-87
2022/03/30 05:21:13;;;;;;;53.87;24.07;;;;;;;7.91;52.91;98193.42;1755014;80;21491;-85
2022/03/30 05:23:40;;;;;;;54.88;23.12;;;;;;;7.97;52.53;98195.38;1759837;80;21006;-88
2022/03/30 05:26:07;;;;;;;48.02;21.48;;;;;;;8.05;52.45;98193.88;1757464;80;21439;-87
2022/03/30 05:28:38;;;;;;;45.67;22.15;;;;;;;8.07;52.19;98199.84;1757736;80;20986;-89
2022/03/30 05:31:02;;;;;;;52.83;22.32;;;;;;;8.11;52.52;98203.20;1756281;81;20976;-88
2022/03/30 05:33:29;;;;;;;55.00;21.93;;;;;;;8.19;52.05;98196.51;1756766;80;20967;-87
2022/03/30 05:35:56;;;;;;;49.88;22.55;;;;;;;8.24;52.62;98199.82;1763550;80;21526;-87
2022/03/30 05:38:24;;;;;;;57.65;24.63;;;;;;;8.27;51.96;98195.37;1739234;81;20950;-85
2022/03/30 05:40:51;;;;;;;47.75;24.15;;;;;;;8.30;52.13;98194.45;1757711;81;20976;-84
2022/03/30 05:43:18;;;;;;;62.33;24.95;;;;;;;8.33;52.25;98190.46;1750629;80;20962;-84
2022/03/30 05:45:45;;;;;;;55.25;24.23;;;;;;;8.37;52.31;98198.53;1765543;80;21538;-81
2022/03/30 05:48:17;;;;;;;49.63;23.62;;;;;;;8.40;51.52;98195.86;1763103;80;21577;-87
2022/03/30 05:50:45;;;;;;;57.75;24.67;;;;;;;8.42;51.67;98209.64;1761780;80;20970;-88
2022/03/30 05:53:14;;;;;;;53.08;24.12;;;;;;;8.45;51.99;98194.00;1755512;80;21040;-90
2022/03/30 05:55:44;;;;;;;49.93;23.50;;;;;;;8.46;51.47;98197.00;1710581;82;20950;-88
2022/03/30 05:58:15;;;;;;;59.08;23.30;;;;;;;8.49;51.64;98195.59;1720410;82;20973;-88
2022/03/30 06:00:42;;;;;;;52.20;23.10;;;;;;;8.51;51.41;98194.26;1764686;80;21035;-91
2022/03/30 06:03:10;;;;;;;49.73;22.87;;;;;;;8.54;51.78;98201.49;1760646;80;20974;-88
2022/03/30 06:05:37;;;;;;;54.75;24.95;;;;;;;8.59;51.13;98203.09;1764625;80;20935;-89
2022/03/30 06:08:07;;;;;;;48.85;24.15;;;;;;;8.61;51.18;98208.61;1761553;80;21530;-89
2022/03/30 06:10:34;;;;;;;52.98;23.65;;;;;;;8.65;51.20;98209.37;1771952;80;20980;-89
2022/03/30 06:13:02;;;;;;;49.30;22.52;;;;;;;8.68;51.17;98206.70;1760020;80;20977;-90
2022/03/30 06:15:29;;;;;;;50.95;23.90;;;;;;;8.69;51.19;98214.86;1765201;79;21017;-89
2022/03/30 06:17:56;;;;;;;56.05;24.27;;;;;;;8.70;51.71;98220.45;1755412;80;21326;-89
2022/03/30 06:20:24;;;;;;;51.33;25.23;;;;;;;8.70;50.98;98217.41;1756249;80;21560;-90
2022/03/30 06:22:53;;;;;;;51.60;24.57;;;;;;;8.69;51.13;98218.28;1756174;80;20981;-92
2022/03/30 06:25:25;;;;;;;49.98;23.57;;;;;;;8.71;51.10;98221.70;1757064;80;20964;-83
2022/03/30 06:27:53;;;;;;;57.03;23.92;;;;;;;8.71;50.86;98220.84;1752917;80;21437;-84
2022/03/30 06:30:20;;;;;;;58.05;24.98;;;;;;;8.77;50.97;98220.64;1756119;80;21490;-85
2022/03/30 06:32:49;;;;;;;58.92;24.70;;;;;;;8.84;50.47;98221.31;1757541;80;20988;-83
2022/03/30 06:35:19;;;;;;;55.33;24.57;;;;;;;8.86;50.75;98217.77;1755494;80;21898;-81
2022/03/30 06:37:49;;;;;;;63.40;25.88;;;;;;;8.90;50.92;98211.58;1762332;80;21560;-85
2022/03/30 06:40:17;;;;;;;56.88;25.62;;;;;;;8.99;50.61;98213.02;1759678;80;20997;-83
2022/03/30 06:42:44;;;;;;;56.30;26.17;;;;;;;8.96;50.96;98201.02;1749849;80;20973;-81
2022/03/30 06:45:11;;;;;;;58.30;26.40;;;;;;;9.07;50.36;98211.47;1736124;81;20943;-86
2022/03/30 06:47:39;;;;;;;63.38;26.50;;;;;;;9.08;50.66;98221.80;1710894;81;21715;-86
2022/03/30 06:50:07;;;;;;;54.38;25.97;;;;;;;9.14;50.20;98219.46;1736049;81;21041;-81
2022/03/30 06:52:35;;;;;;;61.55;25.95;;;;;;;9.19;50.11;98217.58;1742513;81;21766;-85
2022/03/30 06:55:05;;;;;;;57.05;25.72;;;;;;;9.22;50.48;98218.75;1732022;81;20987;-81
2022/03/30 06:57:32;;;;;;;53.00;25.75;;;;;;;9.28;50.49;98217.24;1733563;81;20982;-86
2022/03/30 06:59:59;;;;;;;55.75;25.77;;;;;;;9.36;50.00;98212.64;1735512;81;20984;-83
2022/03/30 07:02:26;;;;;;;61.25;26.75;;;;;;;9.45;49.85;98213.22;1735529;81;20982;-83
2022/03/30 07:04:53;;;;;;;58.68;25.52;;;;;;;9.52;50.38;98207.77;1740855;80;20955;-85
2022/03/30 07:10:17;;;;;;;57.93;27.45;;;;;;;9.68;49.83;98198.98;1702018;83;20995;-91
2022/03/30 07:12:47;;;;;;;54.93;26.75;;;;;;;9.78;49.65;98199.51;1694611;83;21023;-88
2022/03/30 07:15:16;;;;;;;54.20;25.43;;;;;;;9.86;49.81;98203.97;1735360;81;21008;-88
2022/03/30 07:17:53;;;;;;;53.73;26.00;;;;;;;9.92;49.47;98195.11;1733650;81;20995;-86
2022/03/30 07:20:23;;;;;;;50.25;24.72;;;;;;;10.01;49.23;98201.27;1738646;81;21007;-92
2022/03/30 07:22:50;;;;;;;56.28;26.30;;;;;;;10.10;48.95;98194.87;1729599;81;20951;-92
2022/03/30 07:25:22;;;;;;;49.73;25.50;;;;;;;10.15;49.15;98198.16;1736241;81;20979;-89
2022/03/30 07:27:54;;;;;;;55.88;24.50;;;;;;;10.26;48.95;98214.17;1737830;81;20956;-89
2022/03/30 07:30:23;;;;;;;46.70;23.93;;;;;;;10.39;48.70;98213.30;1741518;81;21013;-88
2022/03/30 07:32:51;;;;;;;54.58;23.55;;;;;;;10.52;48.28;98209.33;1734888;81;21326;-89
2022/03/30 07:35:22;;;;;;;45.65;21.68;;;;;;;10.63;48.07;98209.36;1736627;81;21023;-89
2022/03/30 07:37:49;;;;;;;44.50;20.85;;;;;;;10.78;47.29;98197.48;1736034;81;20994;-89
2022/03/30 07:40:19;;;;;;;44.70;21.80;;;;;;;10.94;46.46;98201.16;1735764;81;21028;-88
2022/03/30 07:42:47;;;;;;;41.37;20.05;;;;;;;11.09;46.12;98200.99;1745564;80;21000;-87
2022/03/30 07:45:14;;;;;;;40.63;19.67;;;;;;;11.25;45.74;98204.64;1752882;82;20950;-88
2022/03/30 07:47:41;;;;;;;43.70;20.02;;;;;;;11.43;45.70;98203.47;1752855;80;21443;-88
2022/03/30 07:50:10;;;;;;;46.35;21.45;;;;;;;11.55;45.65;98202.94;1746890;82;21443;-87
2022/03/30 07:52:39;;;;;;;41.55;21.25;;;;;;;11.63;45.48;98195.64;1746079;82;20964;-87
2022/03/30 07:55:08;;;;;;;45.73;21.12;;;;;;;11.84;44.93;98199.53;1746647;80;20998;-86
2022/03/30 07:57:36;;;;;;;43.30;21.07;;;;;;;11.98;44.67;98196.31;1747574;82;20981;-84
2022/03/30 08:00:07;;;;;;;38.45;19.27;;;;;;;12.13;44.58;98192.55;1746136;81;20936;-82
2022/03/30 08:02:34;;;;;;;36.33;19.07;;;;;;;12.34;44.28;98188.59;1749476;80;20994;-81
2022/03/30 08:05:01;;;;;;;34.88;17.52;;;;;;;12.51;44.08;98179.53;1747451;81;21043;-83
2022/03/30 08:07:29;;;;;;;40.78;18.57;;;;;;;12.74;42.63;98176.27;1743059;80;21008;-80
2022/03/30 08:09:57;;;;;;;43.50;16.93;;;;;;;12.99;42.56;98181.57;1739963;82;20948;-82
2022/03/30 08:12:25;;;;;;;33.60;17.37;;;;;;;13.27;42.10;98169.28;1747246;80;21010;-88
2022/03/30 08:14:52;;;;;;;32.40;16.20;;;;;;;13.53;41.14;98165.39;1748641;80;20991;-85
2022/03/30 08:17:19;;;;;;;32.33;14.23;;;;;;;13.77;40.30;98163.26;1748721;82;21519;-85
2022/03/30 08:19:46;;;;;;;34.30;14.78;;;;;;;14.02;39.43;98154.93;1747535;82;20948;-87
2022/03/30 08:22:28;;;;;;;30.60;14.68;;;;;;;14.19;37.34;98148.80;1743800;82;21428;-86
2022/03/30 08:25:02;;;;;;;30.85;14.95;;;;;;;14.35;38.10;98147.49;1751527;80;20964;-83
2022/03/30 08:27:31;;;;;;;39.55;15.70;;;;;;;14.52;36.30;98143.48;1752344;81;21033;-83
2022/03/30 08:29:58;;;;;;;28.87;14.35;;;;;;;14.66;36.36;98143.17;1745112;82;21032;-88
2022/03/30 08:32:26;;;;;;;27.62;13.90;;;;;;;14.77;36.62;98143.41;1749815;82;20982;-91
2022/03/30 08:34:55;;;;;;;34.13;14.30;;;;;;;14.85;35.95;98139.88;1752895;81;20998;-91
2022/03/30 08:37:23;;;;;;;33.30;14.65;;;;;;;14.96;35.14;98146.27;1740989;82;21059;-91
2022/03/30 08:39:51;;;;;;;26.75;13.70;;;;;;;15.06;35.29;98134.32;1734061;82;20947;-85
2022/03/30 08:42:19;;;;;;;31.40;13.70;;;;;;;15.15;35.42;98138.20;1749355;81;20986;-84
2022/03/30 08:44:51;;;;;;;31.77;13.55;;;;;;;15.26;35.17;98135.76;1752622;80;20986;-90
2022/03/30 08:47:18;;;;;;;24.37;12.80;;;;;;;15.36;33.84;98134.30;1762623;80;20968;-85
2022/03/30 08:49:50;;;;;;;30.80;13.83;;;;;;;15.46;34.56;98124.13;1758811;80;20989;-85
2022/03/30 08:52:14;;;;;;;23.50;11.88;;;;;;;15.59;33.98;98126.34;1759998;80;21029;-91
2022/03/30 08:54:43;;;;;;;25.72;11.60;;;;;;;15.73;34.37;98123.39;1753681;80;20987;-86
2022/03/30 08:57:10;;;;;;;23.67;10.58;;;;;;;15.88;33.86;98122.45;1761202;80;20963;-87
2022/03/30 08:59:37;;;;;;;18.65;11.05;;;;;;;16.04;31.08;98125.79;1765412;80;20931;-88
2022/03/30 09:02:04;;;;;;;30.23;11.75;;;;;;;16.19;32.51;98125.27;1761286;80;20973;-90
2022/03/30 09:04:31;;;;;;;26.25;11.75;;;;;;;16.34;32.20;98114.29;1757737;80;20967;-89
2022/03/30 09:06:59;;;;;;;24.35;12.47;;;;;;;16.46;32.04;98108.73;1760716;80;21084;-88
2022/03/30 09:09:35;;;;;;;28.47;11.55;;;;;;;16.53;31.56;98114.41;1760117;80;21447;-90
2022/03/30 09:12:09;;;;;;;20.82;10.60;;;;;;;16.62;31.10;98108.57;1749706;80;21004;-89
2022/03/30 09:14:39;;;;;;;;;;;;;;;16.71;29.41;98104.01;1760523;80;20938;-89
2022/03/30 09:17:09;;;;;;;24.87;9.83;;;;;;;16.79;30.43;98100.88;1760619;80;20562;-89
2022/03/30 09:19:38;;;;;;;25.32;9.43;;;;;;;16.79;27.76;98104.37;1764863;80;20988;-90
2022/03/30 09:22:09;;;;;;;29.57;8.98;;;;;;;16.87;27.48;98098.17;1751443;80;21472;-86
2022/03/30 09:24:41;;;;;;;21.35;8.70;;;;;;;16.92;26.23;98091.28;1753555;80;21191;-85
2022/03/30 09:27:08;;;;;;;23.75;9.50;;;;;;;17.02;26.82;98071.34;1759125;80;20982;-83
2022/03/30 09:29:39;;;;;;;19.50;9.15;;;;;;;17.15;26.20;98077.06;1755693;80;20975;-83
2022/03/30 09:32:08;;;;;;;29.40;9.80;;;;;;;17.28;25.69;98074.81;1764118;80;20995;-89
2022/03/30 09:34:39;;;;;;;32.98;10.05;;;;;;;17.45;26.42;98073.66;1753719;80;21003;-87
2022/03/30 09:37:12;;;;;;;18.20;8.73;;;;;;;17.53;26.36;98070.50;1754966;80;21003;-90
2022/03/30 09:39:40;;;;;;;24.57;9.55;;;;;;;17.56;25.12;98072.06;1753484;80;20982;-90
2022/03/30 09:42:08;;;;;;;25.12;8.80;;;;;;;17.66;25.54;98071.30;1753769;80;21044;-92
2022/03/30 09:44:53;;;;;;;21.45;9.40;;;;;;;17.88;26.05;98081.65;1754100;80;21036;-90
2022/03/30 09:47:22;;;;;;;23.52;11.18;;;;;;;18.05;25.66;98072.08;1744263;81;21496;-89
2022/03/30 09:49:54;;;;;;;24.77;11.35;;;;;;;18.15;25.16;98062.22;1742787;80;21034;-92
2022/03/30 09:52:30;;;;;;;26.63;10.77;;;;;;;18.24;25.45;98066.34;1742294;80;20979;-90
2022/03/30 09:55:01;;;;;;;18.57;9.70;;;;;;;18.33;25.33;98056.92;1745705;82;21485;-91
2022/03/30 09:57:38;;;;;;;17.57;9.93;;;;;;;18.35;24.69;98065.55;1746509;81;20958;-90
2022/03/30 10:00:15;;;;;;;18.05;9.50;;;;;;;18.46;24.62;98057.71;1747498;80;20979;-91
2022/03/30 10:02:52;;;;;;;21.07;9.23;;;;;;;18.40;24.18;98073.09;1748729;80;21022;-85
2022/03/30 10:05:23;;;;;;;30.48;10.32;;;;;;;18.40;24.37;98064.75;1746305;80;21044;-93
2022/03/30 10:07:50;;;;;;;21.37;9.63;;;;;;;18.52;24.89;98061.66;1751859;80;20984;-90
2022/03/30 10:10:23;;;;;;;17.98;9.38;;;;;;;18.59;24.53;98055.48;1744510;80;20982;-90
2022/03/30 10:12:48;;;;;;;18.27;9.43;;;;;;;18.72;24.25;98047.03;1743161;80;21122;-87
2022/03/30 10:15:14;;;;;;;15.45;8.73;;;;;;;18.72;23.99;98037.83;1748148;80;20982;-82
2022/03/30 10:17:41;;;;;;;21.97;9.18;;;;;;;18.88;24.14;98048.90;1746346;80;20965;-82
2022/03/30 10:20:10;;;;;;;20.85;8.88;;;;;;;19.06;24.14;98055.88;1747162;80;20970;-85
2022/03/30 10:23:18;;;;;;;25.05;9.63;;;;;;;19.24;23.88;98043.57;1744363;81;20968;-85
2022/03/30 10:26:05;;;;;;;24.70;9.83;;;;;;;19.45;24.05;98030.50;1747731;82;21500;-87
2022/03/30 10:28:52;;;;;;;27.80;11.35;;;;;;;19.48;23.61;98035.06;1748925;80;21564;-90
2022/03/30 10:31:22;;;;;;;24.43;10.25;;;;;;;19.46;23.26;98032.19;1744451;80;20960;-86
2022/03/30 10:33:49;;;;;;;18.52;9.28;;;;;;;19.49;23.33;98033.25;1747680;82;20997;-89
2022/03/30 10:36:29;;;;;;;20.17;9.55;;;;;;;19.67;22.84;98033.59;1708829;84;21073;-87
2022/03/30 10:39:24;;;;;;;22.40;10.03;;;;;;;19.67;22.71;98020.41;1693408;83;21045;-88
2022/03/30 10:42:04;;;;;;;19.62;9.58;;;;;;;19.74;23.10;98024.77;1706581;82;21084;-85
2022/03/30 10:44:53;;;;;;;17.42;9.03;;;;;;;19.83;23.04;98027.48;1727517;81;21007;-89
2022/03/30 10:47:25;;;;;;;19.27;9.58;;;;;;;19.85;23.30;98028.20;1733203;81;20998;-85
2022/03/30 10:49:57;;;;;;;17.77;8.90;;;;;;;19.88;23.38;98017.91;1729618;81;21013;-89
2022/03/30 10:52:44;;;;;;;17.48;8.88;;;;;;;19.81;22.73;98031.21;1739548;81;21030;-91
2022/03/30 10:55:19;;;;;;;18.00;8.35;;;;;;;19.93;22.91;98028.91;1757400;80;21023;-90
2022/03/30 10:57:58;;;;;;;21.52;8.53;;;;;;;19.76;22.56;98036.03;1765832;80;20963;-88
2022/03/30 11:00:31;;;;;;;20.45;7.95;;;;;;;19.66;22.34;98027.49;1759968;80;21547;-88
2022/03/30 11:03:18;;;;;;;16.77;8.05;;;;;;;19.56;22.51;98032.31;1763983;80;21031;-86
2022/03/30 11:06:01;;;;;;;21.07;8.98;;;;;;;19.59;22.56;98007.00;1763646;80;20980;-89
2022/03/30 11:08:39;;;;;;;27.90;10.03;;;;;;;19.53;22.86;98031.22;1762843;80;20984;-91
2022/03/30 11:11:39;;;;;;;20.97;8.90;;;;;;;19.30;22.44;98027.73;1766961;80;20971;-92
2022/03/30 11:14:43;;;;;;;34.15;8.98;;;;;;;19.30;22.84;98020.69;1767593;80;21068;-89
2022/03/30 11:17:10;;;;;;;20.88;7.95;;;;;;;19.05;22.73;98025.20;1760362;80;20972;-83
2022/03/30 11:20:00;;;;;;;25.90;8.55;;;;;;;18.91;23.14;98028.55;1761488;80;21025;-82
2022/03/30 11:22:30;;;;;;;19.82;8.23;;;;;;;18.91;23.21;98029.87;1764527;80;20917;-87
2022/03/30 11:25:10;;;;;;;19.30;8.95;;;;;;;18.90;23.42;98015.01;1766710;80;20941;-90
2022/03/30 11:27:38;;;;;;;23.57;8.98;;;;;;;18.85;23.39;98009.62;1769129;78;21055;-86
2022/03/30 11:30:19;;;;;;;23.32;9.63;;;;;;;18.87;23.12;98016.09;1758206;79;21039;-85
2022/03/30 11:32:54;;;;;;;18.05;8.90;;;;;;;18.76;23.40;98023.47;1764164;79;21015;-84
2022/03/30 11:35:25;;;;;;;22.07;9.45;;;;;;;18.83;23.66;98018.11;1753492;79;21618;-82
2022/03/30 11:38:09;;;;;;;16.12;9.18;;;;;;;18.74;23.58;98012.67;1767934;79;20993;-84
2022/03/30 11:40:42;;;;;;;15.85;8.15;;;;;;;18.69;23.74;98019.61;1767711;79;21071;-84